sensor_id;sensor_type;location;lat;lon;timestamp;P1;durP1;ratioP1;P2;durP2;ratioP2
817;SDS011;391;51.052;6.954;2023-05-09T00:01:47;14.10;;;12.97;;
817;SDS011;391;51.052;6.954;2023-05-09T00:03:50;14.70;;;13.40;;
817;SDS011;391;51.052;6.954;2023-05-09T00:05:54;15.50;;;14.10;;
817;SDS011;391;51.052;6.954;2023-05-09T00:07:57;14.30;;;13.10;;
817;SDS011;391;51.052;6.954;2023-05-09T00:10:01;13.50;;;12.27;;
817;SDS011;391;51.052;6.954;2023-05-09T00:12:05;13.57;;;12.30;;
817;SDS011;391;51.052;6.954;2023-05-09T00:14:09;15.37;;;14.07;;
817;SDS011;391;51.052;6.954;2023-05-09T00:16:13;15.03;;;13.67;;
817;SDS011;391;51.052;6.954;2023-05-09T00:18:19;17.20;;;15.20;;
817;SDS011;391;51.052;6.954;2023-05-09T00:20:23;14.93;;;13.43;;
817;SDS011;391;51.052;6.954;2023-05-09T00:22:26;15.60;;;14.00;;
817;SDS011;391;51.052;6.954;2023-05-09T00:24:29;15.60;;;13.83;;
817;SDS011;391;51.052;6.954;2023-05-09T00:26:33;14.33;;;12.70;;
817;SDS011;391;51.052;6.954;2023-05-09T00:28:36;17.07;;;15.20;;
817;SDS011;391;51.052;6.954;2023-05-09T00:30:40;14.57;;;13.27;;
817;SDS011;391;51.052;6.954;2023-05-09T00:32:43;16.43;;;14.80;;
817;SDS011;391;51.052;6.954;2023-05-09T00:34:48;16.40;;;14.90;;
817;SDS011;391;51.052;6.954;2023-05-09T00:36:52;19.30;;;16.70;;
817;SDS011;391;51.052;6.954;2023-05-09T00:38:55;19.73;;;17.73;;
817;SDS011;391;51.052;6.954;2023-05-09T00:40:59;20.47;;;18.27;;
817;SDS011;391;51.052;6.954;2023-05-09T00:43:02;18.63;;;16.83;;
817;SDS011;391;51.052;6.954;2023-05-09T00:45:06;19.27;;;17.23;;
817;SDS011;391;51.052;6.954;2023-05-09T00:47:11;18.30;;;16.50;;
817;SDS011;391;51.052;6.954;2023-05-09T00:49:14;19.17;;;17.57;;
817;SDS011;391;51.052;6.954;2023-05-09T00:51:19;19.03;;;17.33;;
817;SDS011;391;51.052;6.954;2023-05-09T00:53:23;16.00;;;14.57;;
817;SDS011;391;51.052;6.954;2023-05-09T00:55:26;17.17;;;15.63;;
817;SDS011;391;51.052;6.954;2023-05-09T00:57:30;15.70;;;14.17;;
817;SDS011;391;51.052;6.954;2023-05-09T00:59:34;17.23;;;15.60;;
817;SDS011;391;51.052;6.954;2023-05-09T01:01:37;14.47;;;13.17;;
817;SDS011;391;51.052;6.954;2023-05-09T01:03:41;12.93;;;11.73;;
817;SDS011;391;51.052;6.954;2023-05-09T01:05:48;16.00;;;14.63;;
817;SDS011;391;51.052;6.954;2023-05-09T01:08:01;16.83;;;15.27;;
817;SDS011;391;51.052;6.954;2023-05-09T01:10:14;19.47;;;17.57;;
817;SDS011;391;51.052;6.954;2023-05-09T01:12:25;19.80;;;18.00;;
817;SDS011;391;51.052;6.954;2023-05-09T01:14:37;17.57;;;16.07;;
817;SDS011;391;51.052;6.954;2023-05-09T01:16:48;18.53;;;16.70;;
817;SDS011;391;51.052;6.954;2023-05-09T01:19:00;18.60;;;16.90;;
817;SDS011;391;51.052;6.954;2023-05-09T01:21:14;17.47;;;15.97;;
817;SDS011;391;51.052;6.954;2023-05-09T01:26:01;18.13;;;16.53;;
817;SDS011;391;51.052;6.954;2023-05-09T01:28:08;18.20;;;16.40;;
817;SDS011;391;51.052;6.954;2023-05-09T01:30:17;18.80;;;17.00;;
817;SDS011;391;51.052;6.954;2023-05-09T01:32:23;17.57;;;15.97;;
817;SDS011;391;51.052;6.954;2023-05-09T01:34:29;17.80;;;16.20;;
817;SDS011;391;51.052;6.954;2023-05-09T01:36:34;18.20;;;16.30;;
817;SDS011;391;51.052;6.954;2023-05-09T01:38:40;18.53;;;16.80;;
817;SDS011;391;51.052;6.954;2023-05-09T01:40:46;18.07;;;16.37;;
817;SDS011;391;51.052;6.954;2023-05-09T01:42:54;18.40;;;16.60;;
817;SDS011;391;51.052;6.954;2023-05-09T01:45:00;17.63;;;15.93;;
817;SDS011;391;51.052;6.954;2023-05-09T01:47:06;18.50;;;16.73;;
817;SDS011;391;51.052;6.954;2023-05-09T01:49:10;17.60;;;16.03;;
817;SDS011;391;51.052;6.954;2023-05-09T01:51:15;18.10;;;16.47;;
817;SDS011;391;51.052;6.954;2023-05-09T01:53:21;17.93;;;16.23;;
817;SDS011;391;51.052;6.954;2023-05-09T01:55:27;19.17;;;17.13;;
817;SDS011;391;51.052;6.954;2023-05-09T01:57:34;22.73;;;17.73;;
817;SDS011;391;51.052;6.954;2023-05-09T01:59:41;20.07;;;18.27;;
817;SDS011;391;51.052;6.954;2023-05-09T02:01:48;19.77;;;17.67;;
817;SDS011;391;51.052;6.954;2023-05-09T02:03:53;20.37;;;18.33;;
817;SDS011;391;51.052;6.954;2023-05-09T02:05:58;19.17;;;17.17;;
817;SDS011;391;51.052;6.954;2023-05-09T02:08:05;18.27;;;16.47;;
817;SDS011;391;51.052;6.954;2023-05-09T02:10:10;17.93;;;16.13;;
817;SDS011;391;51.052;6.954;2023-05-09T02:12:14;18.53;;;16.77;;
817;SDS011;391;51.052;6.954;2023-05-09T02:14:20;19.67;;;17.90;;
817;SDS011;391;51.052;6.954;2023-05-09T02:16:24;17.73;;;16.03;;
817;SDS011;391;51.052;6.954;2023-05-09T02:18:28;16.63;;;14.97;;
817;SDS011;391;51.052;6.954;2023-05-09T02:20:35;17.60;;;15.90;;
817;SDS011;391;51.052;6.954;2023-05-09T02:22:39;17.40;;;15.70;;
817;SDS011;391;51.052;6.954;2023-05-09T02:24:44;17.37;;;15.67;;
817;SDS011;391;51.052;6.954;2023-05-09T02:26:48;16.00;;;14.50;;
817;SDS011;391;51.052;6.954;2023-05-09T02:28:51;17.90;;;16.20;;
817;SDS011;391;51.052;6.954;2023-05-09T02:30:57;18.17;;;16.53;;
817;SDS011;391;51.052;6.954;2023-05-09T02:33:05;18.37;;;16.63;;
817;SDS011;391;51.052;6.954;2023-05-09T02:35:10;17.63;;;15.83;;
817;SDS011;391;51.052;6.954;2023-05-09T02:37:18;17.87;;;16.27;;
817;SDS011;391;51.052;6.954;2023-05-09T02:39:22;19.10;;;17.30;;
817;SDS011;391;51.052;6.954;2023-05-09T02:41:26;18.60;;;16.80;;
817;SDS011;391;51.052;6.954;2023-05-09T02:43:30;16.90;;;15.40;;
817;SDS011;391;51.052;6.954;2023-05-09T02:45:33;18.00;;;16.30;;
817;SDS011;391;51.052;6.954;2023-05-09T02:47:37;18.80;;;16.90;;
817;SDS011;391;51.052;6.954;2023-05-09T02:49:42;18.20;;;16.50;;
817;SDS011;391;51.052;6.954;2023-05-09T02:51:46;17.40;;;15.80;;
817;SDS011;391;51.052;6.954;2023-05-09T02:53:51;17.77;;;15.97;;
817;SDS011;391;51.052;6.954;2023-05-09T02:55:54;16.93;;;15.17;;
817;SDS011;391;51.052;6.954;2023-05-09T02:57:58;17.53;;;16.03;;
817;SDS011;391;51.052;6.954;2023-05-09T03:00:16;17.73;;;16.00;;
817;SDS011;391;51.052;6.954;2023-05-09T03:02:20;17.77;;;15.90;;
817;SDS011;391;51.052;6.954;2023-05-09T03:04:25;19.97;;;18.07;;
817;SDS011;391;51.052;6.954;2023-05-09T03:06:29;17.37;;;15.63;;
817;SDS011;391;51.052;6.954;2023-05-09T03:08:32;18.97;;;17.17;;
817;SDS011;391;51.052;6.954;2023-05-09T03:10:38;15.40;;;14.03;;
817;SDS011;391;51.052;6.954;2023-05-09T03:12:41;20.00;;;18.07;;
817;SDS011;391;51.052;6.954;2023-05-09T03:14:46;21.50;;;19.20;;
817;SDS011;391;51.052;6.954;2023-05-09T03:16:49;20.27;;;18.23;;
817;SDS011;391;51.052;6.954;2023-05-09T03:18:59;18.77;;;17.00;;
817;SDS011;391;51.052;6.954;2023-05-09T03:21:03;18.63;;;16.73;;
817;SDS011;391;51.052;6.954;2023-05-09T03:23:09;18.20;;;16.30;;
817;SDS011;391;51.052;6.954;2023-05-09T03:25:13;21.63;;;19.60;;
817;SDS011;391;51.052;6.954;2023-05-09T03:27:18;17.57;;;15.90;;
817;SDS011;391;51.052;6.954;2023-05-09T03:29:23;17.53;;;15.83;;
817;SDS011;391;51.052;6.954;2023-05-09T03:31:28;20.57;;;18.57;;
817;SDS011;391;51.052;6.954;2023-05-09T03:33:32;20.43;;;17.47;;
817;SDS011;391;51.052;6.954;2023-05-09T03:35:35;17.10;;;15.40;;
817;SDS011;391;51.052;6.954;2023-05-09T03:37:39;19.07;;;17.27;;
817;SDS011;391;51.052;6.954;2023-05-09T03:39:43;16.67;;;15.13;;
817;SDS011;391;51.052;6.954;2023-05-09T03:41:46;17.87;;;16.20;;
817;SDS011;391;51.052;6.954;2023-05-09T03:43:52;16.73;;;15.10;;
817;SDS011;391;51.052;6.954;2023-05-09T03:45:55;16.17;;;14.27;;
817;SDS011;391;51.052;6.954;2023-05-09T03:48:00;18.30;;;16.60;;
817;SDS011;391;51.052;6.954;2023-05-09T03:50:06;16.73;;;15.03;;
817;SDS011;391;51.052;6.954;2023-05-09T03:52:11;21.80;;;19.60;;
817;SDS011;391;51.052;6.954;2023-05-09T03:54:14;19.30;;;17.40;;
817;SDS011;391;51.052;6.954;2023-05-09T03:56:18;18.27;;;16.47;;
817;SDS011;391;51.052;6.954;2023-05-09T03:58:25;17.43;;;15.73;;
817;SDS011;391;51.052;6.954;2023-05-09T04:00:30;16.00;;;14.50;;
817;SDS011;391;51.052;6.954;2023-05-09T04:02:41;17.30;;;15.53;;
817;SDS011;391;51.052;6.954;2023-05-09T04:04:53;18.20;;;16.40;;
817;SDS011;391;51.052;6.954;2023-05-09T04:06:57;15.47;;;13.87;;
817;SDS011;391;51.052;6.954;2023-05-09T04:09:01;16.67;;;14.93;;
817;SDS011;391;51.052;6.954;2023-05-09T04:11:04;20.17;;;18.00;;
817;SDS011;391;51.052;6.954;2023-05-09T04:13:10;21.87;;;19.60;;
817;SDS011;391;51.052;6.954;2023-05-09T04:15:15;19.53;;;17.73;;
817;SDS011;391;51.052;6.954;2023-05-09T04:17:22;19.80;;;17.93;;
817;SDS011;391;51.052;6.954;2023-05-09T04:19:27;17.57;;;15.80;;
817;SDS011;391;51.052;6.954;2023-05-09T04:21:34;17.30;;;15.53;;
817;SDS011;391;51.052;6.954;2023-05-09T04:23:41;19.60;;;17.60;;
817;SDS011;391;51.052;6.954;2023-05-09T04:25:46;20.37;;;18.37;;
817;SDS011;391;51.052;6.954;2023-05-09T04:27:52;24.63;;;22.03;;
817;SDS011;391;51.052;6.954;2023-05-09T04:29:56;20.53;;;18.43;;
817;SDS011;391;51.052;6.954;2023-05-09T04:31:59;20.30;;;18.30;;
817;SDS011;391;51.052;6.954;2023-05-09T04:34:04;18.27;;;16.50;;
817;SDS011;391;51.052;6.954;2023-05-09T04:36:11;18.60;;;16.80;;
817;SDS011;391;51.052;6.954;2023-05-09T04:38:14;18.77;;;17.00;;
817;SDS011;391;51.052;6.954;2023-05-09T04:40:18;17.83;;;16.10;;
817;SDS011;391;51.052;6.954;2023-05-09T04:42:28;18.47;;;16.50;;
817;SDS011;391;51.052;6.954;2023-05-09T04:44:34;17.37;;;15.77;;
817;SDS011;391;51.052;6.954;2023-05-09T04:46:38;16.47;;;14.80;;
817;SDS011;391;51.052;6.954;2023-05-09T04:48:42;20.10;;;18.00;;
817;SDS011;391;51.052;6.954;2023-05-09T04:50:46;20.00;;;17.60;;
817;SDS011;391;51.052;6.954;2023-05-09T04:52:50;18.17;;;16.33;;
817;SDS011;391;51.052;6.954;2023-05-09T04:54:54;16.90;;;15.37;;
817;SDS011;391;51.052;6.954;2023-05-09T04:57:01;17.00;;;15.40;;
817;SDS011;391;51.052;6.954;2023-05-09T04:59:22;19.60;;;17.60;;
817;SDS011;391;51.052;6.954;2023-05-09T05:01:26;19.63;;;17.63;;
817;SDS011;391;51.052;6.954;2023-05-09T05:03:30;23.30;;;21.00;;
817;SDS011;391;51.052;6.954;2023-05-09T05:05:34;23.40;;;21.10;;
817;SDS011;391;51.052;6.954;2023-05-09T05:07:41;22.60;;;20.20;;
817;SDS011;391;51.052;6.954;2023-05-09T05:09:53;22.33;;;20.03;;
817;SDS011;391;51.052;6.954;2023-05-09T05:11:56;25.00;;;21.37;;
817;SDS011;391;51.052;6.954;2023-05-09T05:14:05;26.83;;;22.40;;
817;SDS011;391;51.052;6.954;2023-05-09T05:16:08;24.67;;;21.07;;
817;SDS011;391;51.052;6.954;2023-05-09T05:18:12;27.57;;;22.20;;
817;SDS011;391;51.052;6.954;2023-05-09T05:20:16;25.40;;;22.80;;
817;SDS011;391;51.052;6.954;2023-05-09T05:22:20;23.90;;;21.33;;
817;SDS011;391;51.052;6.954;2023-05-09T05:24:27;22.17;;;19.97;;
817;SDS011;391;51.052;6.954;2023-05-09T05:26:31;24.90;;;21.87;;
817;SDS011;391;51.052;6.954;2023-05-09T05:28:34;23.00;;;20.50;;
817;SDS011;391;51.052;6.954;2023-05-09T05:30:39;23.83;;;21.50;;
817;SDS011;391;51.052;6.954;2023-05-09T05:32:42;22.57;;;20.57;;
817;SDS011;391;51.052;6.954;2023-05-09T05:34:48;24.20;;;21.60;;
817;SDS011;391;51.052;6.954;2023-05-09T05:36:52;24.20;;;21.70;;
817;SDS011;391;51.052;6.954;2023-05-09T05:38:56;23.50;;;21.17;;
817;SDS011;391;51.052;6.954;2023-05-09T05:41:01;25.83;;;23.20;;
817;SDS011;391;51.052;6.954;2023-05-09T05:43:05;23.17;;;20.90;;
817;SDS011;391;51.052;6.954;2023-05-09T05:45:10;23.77;;;21.07;;
817;SDS011;391;51.052;6.954;2023-05-09T05:47:18;23.73;;;21.13;;
817;SDS011;391;51.052;6.954;2023-05-09T05:49:22;24.10;;;21.37;;
817;SDS011;391;51.052;6.954;2023-05-09T05:51:25;23.47;;;20.07;;
817;SDS011;391;51.052;6.954;2023-05-09T05:53:29;22.77;;;18.57;;
817;SDS011;391;51.052;6.954;2023-05-09T05:55:34;19.63;;;17.63;;
817;SDS011;391;51.052;6.954;2023-05-09T05:57:41;22.93;;;20.30;;
817;SDS011;391;51.052;6.954;2023-05-09T05:59:48;21.20;;;19.10;;
817;SDS011;391;51.052;6.954;2023-05-09T06:01:52;21.57;;;19.37;;
817;SDS011;391;51.052;6.954;2023-05-09T06:03:56;19.20;;;17.30;;
817;SDS011;391;51.052;6.954;2023-05-09T06:06:03;19.57;;;17.60;;
817;SDS011;391;51.052;6.954;2023-05-09T06:08:06;20.60;;;18.37;;
817;SDS011;391;51.052;6.954;2023-05-09T06:10:10;18.50;;;16.50;;
817;SDS011;391;51.052;6.954;2023-05-09T06:12:13;21.57;;;19.37;;
817;SDS011;391;51.052;6.954;2023-05-09T06:14:19;20.03;;;17.93;;
817;SDS011;391;51.052;6.954;2023-05-09T06:16:22;20.07;;;18.10;;
817;SDS011;391;51.052;6.954;2023-05-09T06:18:27;19.20;;;17.40;;
817;SDS011;391;51.052;6.954;2023-05-09T06:20:30;19.20;;;17.30;;
817;SDS011;391;51.052;6.954;2023-05-09T06:22:34;24.83;;;20.37;;
817;SDS011;391;51.052;6.954;2023-05-09T06:24:37;23.23;;;20.83;;
817;SDS011;391;51.052;6.954;2023-05-09T06:26:40;20.67;;;18.43;;
817;SDS011;391;51.052;6.954;2023-05-09T06:28:44;22.10;;;20.00;;
817;SDS011;391;51.052;6.954;2023-05-09T06:30:49;22.30;;;19.93;;
817;SDS011;391;51.052;6.954;2023-05-09T06:32:52;21.07;;;18.87;;
817;SDS011;391;51.052;6.954;2023-05-09T06:34:56;23.07;;;18.33;;
817;SDS011;391;51.052;6.954;2023-05-09T06:36:59;18.53;;;16.83;;
817;SDS011;391;51.052;6.954;2023-05-09T06:39:03;18.37;;;15.33;;
817;SDS011;391;51.052;6.954;2023-05-09T06:41:06;19.30;;;16.90;;
817;SDS011;391;51.052;6.954;2023-05-09T06:43:10;18.10;;;16.20;;
817;SDS011;391;51.052;6.954;2023-05-09T06:45:13;18.17;;;16.27;;
817;SDS011;391;51.052;6.954;2023-05-09T06:47:19;19.80;;;17.03;;
817;SDS011;391;51.052;6.954;2023-05-09T06:49:22;19.30;;;17.40;;
817;SDS011;391;51.052;6.954;2023-05-09T06:51:25;17.97;;;16.37;;
817;SDS011;391;51.052;6.954;2023-05-09T06:53:29;17.50;;;15.80;;
817;SDS011;391;51.052;6.954;2023-05-09T06:55:32;16.80;;;14.87;;
817;SDS011;391;51.052;6.954;2023-05-09T06:57:36;16.17;;;14.57;;
817;SDS011;391;51.052;6.954;2023-05-09T06:59:40;17.17;;;15.57;;
817;SDS011;391;51.052;6.954;2023-05-09T07:01:45;15.90;;;14.43;;
817;SDS011;391;51.052;6.954;2023-05-09T07:03:50;16.37;;;14.80;;
817;SDS011;391;51.052;6.954;2023-05-09T07:05:54;17.30;;;15.60;;
817;SDS011;391;51.052;6.954;2023-05-09T07:07:59;16.57;;;14.87;;
817;SDS011;391;51.052;6.954;2023-05-09T07:10:03;15.60;;;14.17;;
817;SDS011;391;51.052;6.954;2023-05-09T07:12:12;16.10;;;14.37;;
817;SDS011;391;51.052;6.954;2023-05-09T07:14:15;15.30;;;14.00;;
817;SDS011;391;51.052;6.954;2023-05-09T07:16:19;15.20;;;13.70;;
817;SDS011;391;51.052;6.954;2023-05-09T07:18:23;14.80;;;13.40;;
817;SDS011;391;51.052;6.954;2023-05-09T07:20:28;15.30;;;13.87;;
817;SDS011;391;51.052;6.954;2023-05-09T07:22:32;13.93;;;12.63;;
817;SDS011;391;51.052;6.954;2023-05-09T07:24:38;15.83;;;14.23;;
817;SDS011;391;51.052;6.954;2023-05-09T07:26:42;15.27;;;13.87;;
817;SDS011;391;51.052;6.954;2023-05-09T07:28:45;13.23;;;12.03;;
817;SDS011;391;51.052;6.954;2023-05-09T07:30:48;12.90;;;11.80;;
817;SDS011;391;51.052;6.954;2023-05-09T07:32:52;13.80;;;12.30;;
817;SDS011;391;51.052;6.954;2023-05-09T07:34:55;12.07;;;10.83;;
817;SDS011;391;51.052;6.954;2023-05-09T07:37:00;12.70;;;11.40;;
817;SDS011;391;51.052;6.954;2023-05-09T07:39:04;11.40;;;10.53;;
817;SDS011;391;51.052;6.954;2023-05-09T07:41:08;11.93;;;9.30;;
817;SDS011;391;51.052;6.954;2023-05-09T07:43:12;12.30;;;10.90;;
817;SDS011;391;51.052;6.954;2023-05-09T07:45:15;11.50;;;10.50;;
817;SDS011;391;51.052;6.954;2023-05-09T07:47:22;11.80;;;9.77;;
817;SDS011;391;51.052;6.954;2023-05-09T07:49:26;9.97;;;9.03;;
817;SDS011;391;51.052;6.954;2023-05-09T07:51:29;10.00;;;9.00;;
817;SDS011;391;51.052;6.954;2023-05-09T07:53:34;10.43;;;9.53;;
817;SDS011;391;51.052;6.954;2023-05-09T07:55:37;10.70;;;9.80;;
817;SDS011;391;51.052;6.954;2023-05-09T07:57:41;10.57;;;9.40;;
817;SDS011;391;51.052;6.954;2023-05-09T07:59:44;9.13;;;8.33;;
817;SDS011;391;51.052;6.954;2023-05-09T08:01:48;8.60;;;7.83;;
817;SDS011;391;51.052;6.954;2023-05-09T08:03:52;8.10;;;7.50;;
817;SDS011;391;51.052;6.954;2023-05-09T08:05:55;7.87;;;7.27;;
817;SDS011;391;51.052;6.954;2023-05-09T08:07:59;6.37;;;5.87;;
817;SDS011;391;51.052;6.954;2023-05-09T08:10:04;6.00;;;5.50;;
817;SDS011;391;51.052;6.954;2023-05-09T08:12:08;6.17;;;5.67;;
817;SDS011;391;51.052;6.954;2023-05-09T08:14:12;6.17;;;5.63;;
817;SDS011;391;51.052;6.954;2023-05-09T08:16:16;6.20;;;5.70;;
817;SDS011;391;51.052;6.954;2023-05-09T08:18:20;6.13;;;5.60;;
817;SDS011;391;51.052;6.954;2023-05-09T08:20:23;6.20;;;5.63;;
817;SDS011;391;51.052;6.954;2023-05-09T08:22:27;5.40;;;5.00;;
817;SDS011;391;51.052;6.954;2023-05-09T08:24:30;5.87;;;5.43;;
817;SDS011;391;51.052;6.954;2023-05-09T08:26:35;5.73;;;5.33;;
817;SDS011;391;51.052;6.954;2023-05-09T08:28:39;7.00;;;6.40;;
817;SDS011;391;51.052;6.954;2023-05-09T08:30:42;6.67;;;6.07;;
817;SDS011;391;51.052;6.954;2023-05-09T08:32:45;7.30;;;6.50;;
817;SDS011;391;51.052;6.954;2023-05-09T08:34:49;5.30;;;5.00;;
817;SDS011;391;51.052;6.954;2023-05-09T08:36:53;5.97;;;5.10;;
817;SDS011;391;51.052;6.954;2023-05-09T08:38:56;6.40;;;5.43;;
817;SDS011;391;51.052;6.954;2023-05-09T08:41:00;5.83;;;5.03;;
817;SDS011;391;51.052;6.954;2023-05-09T08:43:05;5.27;;;4.90;;
817;SDS011;391;51.052;6.954;2023-05-09T08:45:10;6.93;;;5.43;;
817;SDS011;391;51.052;6.954;2023-05-09T08:47:16;5.53;;;5.13;;
817;SDS011;391;51.052;6.954;2023-05-09T08:49:22;5.10;;;4.70;;
817;SDS011;391;51.052;6.954;2023-05-09T08:51:26;5.20;;;4.43;;
817;SDS011;391;51.052;6.954;2023-05-09T08:53:33;4.63;;;4.23;;
817;SDS011;391;51.052;6.954;2023-05-09T08:55:36;4.07;;;3.77;;
817;SDS011;391;51.052;6.954;2023-05-09T08:57:40;3.50;;;3.20;;
817;SDS011;391;51.052;6.954;2023-05-09T08:59:45;2.83;;;2.63;;
817;SDS011;391;51.052;6.954;2023-05-09T09:01:51;2.97;;;2.67;;
817;SDS011;391;51.052;6.954;2023-05-09T09:03:55;2.93;;;2.73;;
817;SDS011;391;51.052;6.954;2023-05-09T09:05:59;2.27;;;2.17;;
817;SDS011;391;51.052;6.954;2023-05-09T09:08:07;2.80;;;2.60;;
817;SDS011;391;51.052;6.954;2023-05-09T09:10:11;3.10;;;2.67;;
817;SDS011;391;51.052;6.954;2023-05-09T09:12:16;3.00;;;2.70;;
817;SDS011;391;51.052;6.954;2023-05-09T09:14:21;3.20;;;2.90;;
817;SDS011;391;51.052;6.954;2023-05-09T09:16:28;3.10;;;2.80;;
817;SDS011;391;51.052;6.954;2023-05-09T09:18:35;3.60;;;3.10;;
817;SDS011;391;51.052;6.954;2023-05-09T09:20:42;3.23;;;2.53;;
817;SDS011;391;51.052;6.954;2023-05-09T09:22:49;2.77;;;2.50;;
817;SDS011;391;51.052;6.954;2023-05-09T09:24:56;2.37;;;2.03;;
817;SDS011;391;51.052;6.954;2023-05-09T09:27:03;3.33;;;1.83;;
817;SDS011;391;51.052;6.954;2023-05-09T09:29:08;1.83;;;1.70;;
817;SDS011;391;51.052;6.954;2023-05-09T09:31:18;2.67;;;2.50;;
817;SDS011;391;51.052;6.954;2023-05-09T09:33:24;2.70;;;2.50;;
817;SDS011;391;51.052;6.954;2023-05-09T09:35:28;3.40;;;2.60;;
817;SDS011;391;51.052;6.954;2023-05-09T09:37:40;3.00;;;2.70;;
817;SDS011;391;51.052;6.954;2023-05-09T09:39:52;2.87;;;2.67;;
817;SDS011;391;51.052;6.954;2023-05-09T09:41:56;2.40;;;2.20;;
817;SDS011;391;51.052;6.954;2023-05-09T09:44:13;2.67;;;2.47;;
817;SDS011;391;51.052;6.954;2023-05-09T09:46:18;3.67;;;3.13;;
817;SDS011;391;51.052;6.954;2023-05-09T09:48:26;2.60;;;2.40;;
817;SDS011;391;51.052;6.954;2023-05-09T09:50:34;2.23;;;2.10;;
817;SDS011;391;51.052;6.954;2023-05-09T09:52:42;3.13;;;2.93;;
817;SDS011;391;51.052;6.954;2023-05-09T09:54:46;3.00;;;2.80;;
817;SDS011;391;51.052;6.954;2023-05-09T09:56:50;2.87;;;2.67;;
817;SDS011;391;51.052;6.954;2023-05-09T09:59:06;2.80;;;2.60;;
817;SDS011;391;51.052;6.954;2023-05-09T10:01:11;3.50;;;2.80;;
817;SDS011;391;51.052;6.954;2023-05-09T10:03:17;2.80;;;2.60;;
817;SDS011;391;51.052;6.954;2023-05-09T10:05:22;2.40;;;2.03;;
817;SDS011;391;51.052;6.954;2023-05-09T10:07:31;3.03;;;2.73;;
817;SDS011;391;51.052;6.954;2023-05-09T10:09:36;3.20;;;2.50;;
817;SDS011;391;51.052;6.954;2023-05-09T10:11:39;2.90;;;2.70;;
817;SDS011;391;51.052;6.954;2023-05-09T10:13:43;2.50;;;2.30;;
817;SDS011;391;51.052;6.954;2023-05-09T10:15:47;2.50;;;2.30;;
817;SDS011;391;51.052;6.954;2023-05-09T10:17:56;3.33;;;3.03;;
817;SDS011;391;51.052;6.954;2023-05-09T10:20:03;2.27;;;2.07;;
817;SDS011;391;51.052;6.954;2023-05-09T10:22:09;2.80;;;2.17;;
817;SDS011;391;51.052;6.954;2023-05-09T10:24:13;8.17;;;6.47;;
817;SDS011;391;51.052;6.954;2023-05-09T10:26:21;6.43;;;3.10;;
817;SDS011;391;51.052;6.954;2023-05-09T10:28:30;3.03;;;2.13;;
817;SDS011;391;51.052;6.954;2023-05-09T10:30:35;2.70;;;2.50;;
817;SDS011;391;51.052;6.954;2023-05-09T10:32:51;3.20;;;2.83;;
817;SDS011;391;51.052;6.954;2023-05-09T10:34:57;3.60;;;3.30;;
817;SDS011;391;51.052;6.954;2023-05-09T10:37:08;3.60;;;3.30;;
817;SDS011;391;51.052;6.954;2023-05-09T10:39:12;3.00;;;2.70;;
817;SDS011;391;51.052;6.954;2023-05-09T10:41:16;3.67;;;2.67;;
817;SDS011;391;51.052;6.954;2023-05-09T10:43:20;3.17;;;2.97;;
817;SDS011;391;51.052;6.954;2023-05-09T10:45:26;2.43;;;2.23;;
817;SDS011;391;51.052;6.954;2023-05-09T10:47:30;2.53;;;2.30;;
817;SDS011;391;51.052;6.954;2023-05-09T10:49:34;2.10;;;2.00;;
817;SDS011;391;51.052;6.954;2023-05-09T10:51:38;2.77;;;2.43;;
817;SDS011;391;51.052;6.954;2023-05-09T10:53:44;2.63;;;2.27;;
817;SDS011;391;51.052;6.954;2023-05-09T10:55:50;3.63;;;2.93;;
817;SDS011;391;51.052;6.954;2023-05-09T10:57:56;3.00;;;2.70;;
817;SDS011;391;51.052;6.954;2023-05-09T11:00:23;4.90;;;4.50;;
817;SDS011;391;51.052;6.954;2023-05-09T11:02:27;3.63;;;3.33;;
817;SDS011;391;51.052;6.954;2023-05-09T11:04:33;3.20;;;3.00;;
817;SDS011;391;51.052;6.954;2023-05-09T11:06:40;5.03;;;2.90;;
817;SDS011;391;51.052;6.954;2023-05-09T11:08:47;3.00;;;2.70;;
817;SDS011;391;51.052;6.954;2023-05-09T11:10:51;3.40;;;2.70;;
817;SDS011;391;51.052;6.954;2023-05-09T11:12:56;3.37;;;3.10;;
817;SDS011;391;51.052;6.954;2023-05-09T11:15:03;4.30;;;2.50;;
817;SDS011;391;51.052;6.954;2023-05-09T11:17:09;3.20;;;2.57;;
817;SDS011;391;51.052;6.954;2023-05-09T11:19:14;4.10;;;3.80;;
817;SDS011;391;51.052;6.954;2023-05-09T11:21:35;3.00;;;2.80;;
817;SDS011;391;51.052;6.954;2023-05-09T11:23:39;3.00;;;2.80;;
817;SDS011;391;51.052;6.954;2023-05-09T11:25:45;2.93;;;2.73;;
817;SDS011;391;51.052;6.954;2023-05-09T11:27:50;2.77;;;2.57;;
817;SDS011;391;51.052;6.954;2023-05-09T11:29:54;3.47;;;3.17;;
817;SDS011;391;51.052;6.954;2023-05-09T11:32:05;2.70;;;2.50;;
817;SDS011;391;51.052;6.954;2023-05-09T11:34:09;3.30;;;2.63;;
817;SDS011;391;51.052;6.954;2023-05-09T11:36:15;4.40;;;3.13;;
817;SDS011;391;51.052;6.954;2023-05-09T11:38:20;3.80;;;2.83;;
817;SDS011;391;51.052;6.954;2023-05-09T11:40:23;3.50;;;3.20;;
817;SDS011;391;51.052;6.954;2023-05-09T11:42:29;4.07;;;3.67;;
817;SDS011;391;51.052;6.954;2023-05-09T11:44:33;4.83;;;4.30;;
817;SDS011;391;51.052;6.954;2023-05-09T11:46:38;4.80;;;4.40;;
817;SDS011;391;51.052;6.954;2023-05-09T11:48:41;3.30;;;3.00;;
817;SDS011;391;51.052;6.954;2023-05-09T11:50:45;2.87;;;2.67;;
817;SDS011;391;51.052;6.954;2023-05-09T11:52:50;2.97;;;2.77;;
817;SDS011;391;51.052;6.954;2023-05-09T11:54:54;4.50;;;3.10;;
817;SDS011;391;51.052;6.954;2023-05-09T11:56:57;4.33;;;3.33;;
817;SDS011;391;51.052;6.954;2023-05-09T11:59:03;2.80;;;2.60;;
817;SDS011;391;51.052;6.954;2023-05-09T12:01:07;3.17;;;2.87;;
817;SDS011;391;51.052;6.954;2023-05-09T12:03:13;3.47;;;2.87;;
817;SDS011;391;51.052;6.954;2023-05-09T12:05:18;4.00;;;3.13;;
817;SDS011;391;51.052;6.954;2023-05-09T12:07:22;4.03;;;3.73;;
817;SDS011;391;51.052;6.954;2023-05-09T12:09:28;6.73;;;5.07;;
817;SDS011;391;51.052;6.954;2023-05-09T12:11:33;3.80;;;3.30;;
817;SDS011;391;51.052;6.954;2023-05-09T12:13:43;3.30;;;3.10;;
817;SDS011;391;51.052;6.954;2023-05-09T12:15:49;3.10;;;2.90;;
817;SDS011;391;51.052;6.954;2023-05-09T12:17:59;2.90;;;2.70;;
817;SDS011;391;51.052;6.954;2023-05-09T12:20:04;3.07;;;2.87;;
817;SDS011;391;51.052;6.954;2023-05-09T12:22:08;3.13;;;2.83;;
817;SDS011;391;51.052;6.954;2023-05-09T12:24:11;3.83;;;3.50;;
817;SDS011;391;51.052;6.954;2023-05-09T12:26:15;6.43;;;3.10;;
817;SDS011;391;51.052;6.954;2023-05-09T12:28:18;2.93;;;2.73;;
817;SDS011;391;51.052;6.954;2023-05-09T12:30:22;3.33;;;3.13;;
817;SDS011;391;51.052;6.954;2023-05-09T12:32:27;3.60;;;3.30;;
817;SDS011;391;51.052;6.954;2023-05-09T12:34:33;3.33;;;3.00;;
817;SDS011;391;51.052;6.954;2023-05-09T12:36:37;3.13;;;2.93;;
817;SDS011;391;51.052;6.954;2023-05-09T12:38:44;2.90;;;2.53;;
817;SDS011;391;51.052;6.954;2023-05-09T12:40:58;2.93;;;2.30;;
817;SDS011;391;51.052;6.954;2023-05-09T12:43:04;2.90;;;2.63;;
817;SDS011;391;51.052;6.954;2023-05-09T12:45:09;3.50;;;2.63;;
817;SDS011;391;51.052;6.954;2023-05-09T12:47:14;3.57;;;3.23;;
817;SDS011;391;51.052;6.954;2023-05-09T12:49:21;2.90;;;2.60;;
817;SDS011;391;51.052;6.954;2023-05-09T12:51:25;3.30;;;2.80;;
817;SDS011;391;51.052;6.954;2023-05-09T12:53:29;2.73;;;2.50;;
817;SDS011;391;51.052;6.954;2023-05-09T12:55:37;7.13;;;6.43;;
817;SDS011;391;51.052;6.954;2023-05-09T12:57:42;4.30;;;3.90;;
817;SDS011;391;51.052;6.954;2023-05-09T12:59:58;2.83;;;2.63;;
817;SDS011;391;51.052;6.954;2023-05-09T13:02:03;4.67;;;3.10;;
817;SDS011;391;51.052;6.954;2023-05-09T13:04:06;3.50;;;2.77;;
817;SDS011;391;51.052;6.954;2023-05-09T13:06:14;3.00;;;2.80;;
817;SDS011;391;51.052;6.954;2023-05-09T13:08:17;3.03;;;2.83;;
817;SDS011;391;51.052;6.954;2023-05-09T13:10:23;4.27;;;3.73;;
817;SDS011;391;51.052;6.954;2023-05-09T13:12:29;5.00;;;4.50;;